Time;durP1;ratioP1;P1;durP2;ratioP2;P2;SDS_P1;SDS_P2;PMS_P1;PMS_P2;Temp;Humidity;BMP_temperature;BMP_pressure;BME280_temperature;BME280_humidity;BME280_pressure;Samples;Min_cycle;Max_cycle;Signal;HPM_P1;HPM_P2
2021/12/27 00:00:06;;;;;;;10.80;8.13;;;;;;;;;;5051812;28;20235;-73
2021/12/27 00:02:33;;;;;;;11.18;7.40;;;;;;;;;;5047483;28;20213;-74
2021/12/27 00:05:02;;;;;;;10.52;7.30;;;;;;;;;;5054049;28;20191;-74
2021/12/27 00:07:29;;;;;;;11.30;8.13;;;;;;;;;;5049578;28;20669;-74
2021/12/27 00:09:56;;;;;;;10.13;6.97;;;;;;;;;;5046063;28;20195;-74
2021/12/27 00:12:23;;;;;;;9.65;6.90;;;;;;;;;;5046537;28;20198;-75
2021/12/27 00:14:50;;;;;;;11.25;8.68;;;;;;;;;;5058116;28;20187;-73
2021/12/27 00:17:17;;;;;;;12.57;8.25;;;;;;;;;;5048459;28;20569;-75
2021/12/27 00:19:44;;;;;;;11.13;7.60;;;;;;;;;;5045578;28;20581;-73
2021/12/27 00:22:12;;;;;;;7.63;6.28;;;;;;;;;;5047439;28;20199;-73
2021/12/27 00:24:40;;;;;;;9.70;7.85;;;;;;;;;;5050068;28;20647;-73
2021/12/27 00:27:07;;;;;;;9.63;8.27;;;;;;;;;;5046421;28;20658;-73
2021/12/27 00:29:34;;;;;;;9.93;5.63;;;;;;;;;;5046705;28;20218;-73
2021/12/27 00:32:01;;;;;;;9.40;6.95;;;;;;;;;;5048112;28;20219;-72
2021/12/27 00:34:28;;;;;;;9.65;7.65;;;;;;;;;;5048435;28;20673;-78
2021/12/27 00:36:55;;;;;;;11.57;6.85;;;;;;;;;;5049677;28;20198;-73
2021/12/27 00:39:23;;;;;;;11.30;7.25;;;;;;;;;;5047086;28;20226;-74
2021/12/27 00:41:50;;;;;;;9.60;6.43;;;;;;;;;;5046270;28;20199;-73
2021/12/27 00:44:17;;;;;;;9.85;8.10;;;;;;;;;;5053882;28;20225;-73
2021/12/27 00:46:44;;;;;;;10.43;7.30;;;;;;;;;;5048557;28;20202;-74
2021/12/27 00:49:11;;;;;;;10.18;7.38;;;;;;;;;;5043647;28;20558;-73
2021/12/27 00:51:38;;;;;;;8.65;6.70;;;;;;;;;;5051246;28;20207;-75
2021/12/27 00:54:06;;;;;;;9.18;6.47;;;;;;;;;;5055484;28;20198;-74
2021/12/27 00:56:34;;;;;;;9.43;6.57;;;;;;;;;;5039963;28;20651;-74
2021/12/27 00:59:01;;;;;;;10.02;7.38;;;;;;;;;;5041651;28;20219;-74
2021/12/27 01:01:29;;;;;;;9.23;6.88;;;;;;;;;;5050148;28;20689;-75
2021/12/27 01:03:56;;;;;;;12.90;9.10;;;;;;;;;;5037882;28;20195;-74
2021/12/27 01:06:24;;;;;;;10.82;7.93;;;;;;;;;;5049533;28;20663;-75
2021/12/27 01:08:52;;;;;;;10.95;7.93;;;;;;;;;;5053027;28;20202;-75
2021/12/27 01:11:35;;;;;;;9.30;6.80;;;;;;;;;;5049902;28;20646;-76
2021/12/27 01:14:10;;;;;;;11.07;7.47;;;;;;;;;;5044159;28;20194;-76
2021/12/27 01:16:37;;;;;;;8.77;7.07;;;;;;;;;;5046345;28;20597;-75
2021/12/27 01:19:05;;;;;;;9.65;6.95;;;;;;;;;;5048926;28;20698;-74
2021/12/27 01:21:32;;;;;;;8.13;6.35;;;;;;;;;;5047354;28;20198;-74
2021/12/27 01:23:59;;;;;;;9.60;6.97;;;;;;;;;;5046406;28;20221;-74
2021/12/27 01:26:27;;;;;;;10.85;7.00;;;;;;;;;;5049968;28;20206;-75
2021/12/27 01:28:56;;;;;;;13.30;8.88;;;;;;;;;;5046352;28;20201;-75
2021/12/27 01:31:24;;;;;;;13.07;8.70;;;;;;;;;;5043344;28;20208;-74
2021/12/27 01:33:52;;;;;;;7.30;6.57;;;;;;;;;;5048503;28;20203;-75
2021/12/27 01:36:19;;;;;;;8.63;6.68;;;;;;;;;;5053943;28;22375;-76
2021/12/27 01:38:48;;;;;;;9.20;6.25;;;;;;;;;;5035667;28;20195;-74
2021/12/27 01:41:16;;;;;;;11.93;6.57;;;;;;;;;;5046683;28;20302;-74
2021/12/27 01:43:43;;;;;;;10.93;8.43;;;;;;;;;;5048399;28;20210;-74
2021/12/27 01:46:13;;;;;;;10.98;7.60;;;;;;;;;;5043864;28;20195;-74
2021/12/27 01:48:42;;;;;;;8.77;6.95;;;;;;;;;;5034103;28;20674;-74
2021/12/27 01:51:10;;;;;;;9.05;6.30;;;;;;;;;;5048747;28;20222;-74
2021/12/27 01:53:39;;;;;;;9.90;6.65;;;;;;;;;;5045350;28;20205;-74
2021/12/27 01:56:09;;;;;;;8.88;6.07;;;;;;;;;;5049140;28;20203;-74
2021/12/27 01:58:36;;;;;;;9.25;5.70;;;;;;;;;;5048811;28;20195;-74
2021/12/27 02:01:05;;;;;;;8.88;6.85;;;;;;;;;;5053399;28;20222;-75
2021/12/27 02:03:33;;;;;;;8.18;6.55;;;;;;;;;;5051449;28;20203;-73
2021/12/27 02:06:01;;;;;;;9.10;5.72;;;;;;;;;;5052757;28;20191;-74
2021/12/27 02:08:29;;;;;;;7.20;5.55;;;;;;;;;;5050559;28;20191;-75
2021/12/27 02:10:56;;;;;;;10.55;7.57;;;;;;;;;;5050517;28;20215;-75
2021/12/27 02:13:24;;;;;;;10.05;7.32;;;;;;;;;;5051082;28;20646;-74
2021/12/27 02:15:52;;;;;;;8.68;5.30;;;;;;;;;;5053327;28;20229;-74
2021/12/27 02:18:19;;;;;;;12.50;6.72;;;;;;;;;;5050661;28;20206;-74
2021/12/27 02:20:48;;;;;;;11.48;6.75;;;;;;;;;;5044534;28;20223;-77
2021/12/27 02:23:16;;;;;;;8.85;6.60;;;;;;;;;;5054173;28;20712;-74
2021/12/27 02:25:44;;;;;;;8.48;5.90;;;;;;;;;;5043161;28;20195;-74
2021/12/27 02:28:11;;;;;;;12.50;7.28;;;;;;;;;;5047438;28;20199;-74
2021/12/27 02:30:40;;;;;;;12.82;7.82;;;;;;;;;;5051915;28;20211;-75
2021/12/27 02:33:08;;;;;;;8.50;6.57;;;;;;;;;;5049785;28;20626;-74
2021/12/27 02:35:37;;;;;;;10.25;6.85;;;;;;;;;;5055216;28;20685;-73
2021/12/27 02:38:07;;;;;;;9.23;6.20;;;;;;;;;;5052357;28;20575;-74
2021/12/27 02:40:34;;;;;;;9.25;6.97;;;;;;;;;;5053517;28;20523;-74
2021/12/27 02:43:03;;;;;;;10.48;7.40;;;;;;;;;;5046079;28;20194;-74
2021/12/27 02:45:30;;;;;;;9.50;7.20;;;;;;;;;;5051791;28;20230;-74
2021/12/27 02:47:58;;;;;;;11.77;6.13;;;;;;;;;;5056117;28;20206;-75
2021/12/27 02:50:26;;;;;;;8.82;6.22;;;;;;;;;;5052494;28;20259;-74
2021/12/27 02:52:53;;;;;;;9.32;6.45;;;;;;;;;;5057219;28;20191;-74
2021/12/27 02:55:23;;;;;;;9.27;6.55;;;;;;;;;;5050443;28;20204;-74
2021/12/27 02:57:51;;;;;;;10.70;7.40;;;;;;;;;;5048875;28;20184;-74
2021/12/27 03:00:19;;;;;;;10.18;7.53;;;;;;;;;;5043703;28;20246;-75
2021/12/27 03:02:48;;;;;;;9.38;6.68;;;;;;;;;;5049378;28;20246;-74
2021/12/27 03:05:16;;;;;;;8.20;5.57;;;;;;;;;;5054078;28;20217;-75
2021/12/27 03:07:44;;;;;;;10.88;7.55;;;;;;;;;;5052761;28;20195;-73
2021/12/27 03:10:12;;;;;;;8.40;6.38;;;;;;;;;;5051396;28;20202;-75
2021/12/27 03:12:43;;;;;;;8.15;6.40;;;;;;;;;;5051956;28;20195;-76
2021/12/27 03:15:11;;;;;;;10.52;6.40;;;;;;;;;;5059667;28;20706;-73
2021/12/27 03:17:38;;;;;;;9.75;6.72;;;;;;;;;;5048777;28;20202;-75
2021/12/27 03:20:05;;;;;;;9.07;5.85;;;;;;;;;;5047762;28;20218;-75
2021/12/27 03:22:33;;;;;;;9.68;6.30;;;;;;;;;;5049642;28;20206;-75
2021/12/27 03:25:00;;;;;;;7.38;6.55;;;;;;;;;;5052615;28;20562;-73
2021/12/27 03:27:27;;;;;;;8.88;6.20;;;;;;;;;;5059768;28;20191;-73
2021/12/27 03:29:55;;;;;;;8.30;6.07;;;;;;;;;;5052351;28;20654;-74
2021/12/27 03:32:23;;;;;;;10.68;6.75;;;;;;;;;;5047489;28;20199;-74
2021/12/27 03:34:56;;;;;;;9.07;6.57;;;;;;;;;;5049349;28;20638;-74
2021/12/27 03:37:24;;;;;;;8.40;7.28;;;;;;;;;;5052337;28;20195;-76
2021/12/27 03:39:51;;;;;;;7.93;6.28;;;;;;;;;;5058611;28;20218;-74
2021/12/27 03:42:18;;;;;;;13.98;8.30;;;;;;;;;;5038789;28;20702;-74
2021/12/27 03:44:46;;;;;;;11.63;5.82;;;;;;;;;;5050932;28;20411;-73
2021/12/27 03:47:15;;;;;;;10.32;6.43;;;;;;;;;;5046003;28;20231;-74
2021/12/27 03:49:42;;;;;;;9.50;5.68;;;;;;;;;;5058060;28;20262;-74
2021/12/27 03:52:09;;;;;;;9.40;6.63;;;;;;;;;;5044279;28;20210;-74
2021/12/27 03:54:36;;;;;;;9.75;6.95;;;;;;;;;;5051425;28;20622;-74
2021/12/27 03:57:03;;;;;;;9.38;7.72;;;;;;;;;;5039620;28;20572;-77
2021/12/27 03:59:49;;;;;;;6.25;4.95;;;;;;;;;;5051181;28;20718;-78
2021/12/27 04:02:18;;;;;;;7.80;6.10;;;;;;;;;;5045887;28;20285;-77
2021/12/27 04:04:45;;;;;;;7.05;5.70;;;;;;;;;;5043452;28;20198;-77
2021/12/27 04:07:13;;;;;;;8.60;5.80;;;;;;;;;;5053028;28;20678;-77
2021/12/27 04:09:40;;;;;;;12.80;7.18;;;;;;;;;;5051301;28;20202;-77
2021/12/27 04:12:07;;;;;;;7.20;5.72;;;;;;;;;;5049246;28;20664;-78
2021/12/27 04:14:34;;;;;;;6.93;5.20;;;;;;;;;;5050665;28;20194;-78
2021/12/27 04:17:02;;;;;;;9.55;6.60;;;;;;;;;;5046496;28;20575;-77
2021/12/27 04:19:30;;;;;;;8.68;6.00;;;;;;;;;;5042204;28;20570;-77
2021/12/27 04:21:57;;;;;;;8.02;5.38;;;;;;;;;;5056341;28;20210;-77
2021/12/27 04:24:24;;;;;;;7.70;5.88;;;;;;;;;;5050225;28;20213;-77
2021/12/27 04:26:51;;;;;;;6.68;5.55;;;;;;;;;;5042598;28;20200;-77
2021/12/27 04:29:18;;;;;;;7.65;5.45;;;;;;;;;;5048577;28;20685;-77
2021/12/27 04:31:45;;;;;;;9.00;6.18;;;;;;;;;;5047300;28;20594;-77
2021/12/27 04:34:13;;;;;;;11.00;6.53;;;;;;;;;;5048865;28;20195;-77
2021/12/27 04:36:41;;;;;;;8.18;6.30;;;;;;;;;;5049645;28;20191;-77
2021/12/27 04:39:09;;;;;;;8.43;5.90;;;;;;;;;;5050567;28;20199;-77
2021/12/27 04:41:36;;;;;;;7.00;6.00;;;;;;;;;;5034937;28;20254;-77
2021/12/27 04:44:03;;;;;;;11.73;5.65;;;;;;;;;;5043029;28;20230;-77
2021/12/27 04:46:31;;;;;;;6.68;5.18;;;;;;;;;;5052867;28;20198;-77
2021/12/27 04:48:58;;;;;;;8.38;5.40;;;;;;;;;;5033675;28;20191;-77
2021/12/27 04:51:25;;;;;;;7.82;6.28;;;;;;;;;;5048045;28;20199;-77
2021/12/27 04:53:53;;;;;;;7.22;5.50;;;;;;;;;;5043334;28;20199;-77
2021/12/27 04:56:20;;;;;;;7.25;4.47;;;;;;;;;;5049060;28;20202;-77
2021/12/27 04:58:47;;;;;;;8.00;5.80;;;;;;;;;;5050194;28;20199;-77
2021/12/27 05:01:15;;;;;;;7.93;5.65;;;;;;;;;;5049570;28;20227;-78
2021/12/27 05:03:42;;;;;;;9.63;6.38;;;;;;;;;;5047327;28;20201;-77
2021/12/27 05:06:10;;;;;;;6.10;4.70;;;;;;;;;;5049248;28;20203;-77
2021/12/27 05:08:37;;;;;;;8.48;5.30;;;;;;;;;;5040592;28;20203;-77
2021/12/27 05:11:05;;;;;;;10.10;6.53;;;;;;;;;;5040803;28;20195;-78
2021/12/27 05:13:33;;;;;;;7.80;5.60;;;;;;;;;;5057357;28;20674;-78
2021/12/27 05:16:01;;;;;;;7.57;5.80;;;;;;;;;;5050122;28;20561;-76
2021/12/27 05:18:28;;;;;;;9.32;6.20;;;;;;;;;;5050903;28;20206;-76
2021/12/27 05:20:55;;;;;;;6.97;6.28;;;;;;;;;;5043130;28;20223;-76
2021/12/27 05:23:22;;;;;;;7.38;5.70;;;;;;;;;;5049912;28;20627;-77
2021/12/27 05:25:49;;;;;;;6.10;5.10;;;;;;;;;;5047666;28;20191;-77
2021/12/27 05:28:18;;;;;;;7.95;5.32;;;;;;;;;;5049257;28;20195;-76
2021/12/27 05:30:48;;;;;;;5.97;5.07;;;;;;;;;;5048071;28;20613;-77
2021/12/27 05:33:15;;;;;;;7.65;5.57;;;;;;;;;;5063285;28;20187;-76
2021/12/27 05:35:42;;;;;;;8.60;5.97;;;;;;;;;;5062569;28;20360;-76
2021/12/27 05:38:09;;;;;;;7.72;5.47;;;;;;;;;;5068877;28;20198;-76
2021/12/27 05:40:36;;;;;;;7.60;5.22;;;;;;;;;;5065789;28;20207;-76
2021/12/27 05:43:04;;;;;;;7.35;6.15;;;;;;;;;;5063196;28;20199;-76
2021/12/27 05:45:32;;;;;;;8.25;5.30;;;;;;;;;;5064988;28;20626;-77
2021/12/27 05:47:59;;;;;;;9.77;6.00;;;;;;;;;;5042311;28;20213;-78
2021/12/27 05:50:26;;;;;;;7.30;6.28;;;;;;;;;;5052283;28;20202;-78
2021/12/27 05:52:54;;;;;;;7.88;5.95;;;;;;;;;;5049179;28;20191;-78
2021/12/27 05:55:21;;;;;;;6.57;4.78;;;;;;;;;;5047320;28;20195;-77
2021/12/27 05:57:48;;;;;;;7.82;5.53;;;;;;;;;;5045657;28;20206;-78
2021/12/27 06:00:16;;;;;;;8.05;5.47;;;;;;;;;;5047464;28;20222;-78
2021/12/27 06:02:45;;;;;;;5.82;5.20;;;;;;;;;;5046542;28;20226;-78
2021/12/27 06:05:12;;;;;;;6.78;5.00;;;;;;;;;;5050089;28;20202;-78
2021/12/27 06:07:39;;;;;;;11.45;6.72;;;;;;;;;;5049546;28;20691;-77
2021/12/27 06:10:07;;;;;;;7.15;5.22;;;;;;;;;;5049163;28;20202;-78
2021/12/27 06:12:34;;;;;;;7.30;5.20;;;;;;;;;;5051629;28;20197;-77
2021/12/27 06:15:01;;;;;;;7.68;5.60;;;;;;;;;;5049246;28;20581;-77
2021/12/27 06:17:30;;;;;;;8.40;5.65;;;;;;;;;;5041247;28;20195;-77
2021/12/27 06:19:58;;;;;;;6.18;4.88;;;;;;;;;;5047843;28;20207;-78
2021/12/27 06:22:25;;;;;;;6.43;4.72;;;;;;;;;;5051079;28;20421;-77
2021/12/27 06:24:52;;;;;;;6.10;4.80;;;;;;;;;;5049246;28;20658;-78
2021/12/27 06:27:20;;;;;;;8.15;5.63;;;;;;;;;;5045270;28;20195;-77
2021/12/27 06:29:47;;;;;;;7.90;6.00;;;;;;;;;;5048493;28;20597;-77
2021/12/27 06:32:14;;;;;;;7.60;5.38;;;;;;;;;;5044178;28;20214;-77
2021/12/27 06:34:42;;;;;;;8.63;5.85;;;;;;;;;;5049291;28;20225;-77
2021/12/27 06:37:10;;;;;;;6.43;4.95;;;;;;;;;;5048080;28;20608;-77
2021/12/27 06:39:37;;;;;;;10.45;5.68;;;;;;;;;;5048617;28;20552;-78
2021/12/27 06:42:05;;;;;;;8.32;5.80;;;;;;;;;;5044947;28;20222;-77
2021/12/27 06:44:32;;;;;;;6.35;5.45;;;;;;;;;;5046877;28;20237;-78
2021/12/27 06:47:00;;;;;;;9.45;5.32;;;;;;;;;;5046808;28;20214;-78
2021/12/27 06:49:27;;;;;;;7.85;5.70;;;;;;;;;;5052949;28;20249;-77
2021/12/27 06:51:54;;;;;;;7.72;5.22;;;;;;;;;;5052838;28;20194;-77
2021/12/27 06:54:23;;;;;;;8.30;4.88;;;;;;;;;;5054999;28;20199;-77
2021/12/27 06:56:50;;;;;;;6.72;4.32;;;;;;;;;;5051513;28;20194;-77
2021/12/27 06:59:17;;;;;;;7.57;5.40;;;;;;;;;;5065923;28;20220;-78
2021/12/27 07:01:44;;;;;;;5.43;4.70;;;;;;;;;;5053494;28;20219;-79
2021/12/27 07:04:11;;;;;;;10.88;4.72;;;;;;;;;;5040381;28;20651;-79
2021/12/27 07:06:38;;;;;;;6.03;4.13;;;;;;;;;;5053047;28;20222;-80
2021/12/27 07:09:06;;;;;;;5.90;4.30;;;;;;;;;;5053058;28;20191;-80
2021/12/27 07:11:35;;;;;;;5.20;3.58;;;;;;;;;;5052003;28;20286;-78
2021/12/27 07:14:03;;;;;;;6.70;4.72;;;;;;;;;;5050562;28;20194;-79
2021/12/27 07:16:30;;;;;;;7.47;6.03;;;;;;;;;;5052511;28;20203;-78
2021/12/27 07:18:57;;;;;;;6.03;4.13;;;;;;;;;;5040934;28;20305;-78
2021/12/27 07:21:24;;;;;;;5.20;3.95;;;;;;;;;;5051423;28;20582;-79
2021/12/27 07:23:51;;;;;;;5.60;4.32;;;;;;;;;;5052093;28;20194;-78
2021/12/27 07:26:18;;;;;;;5.38;4.15;;;;;;;;;;5051434;28;20194;-79
2021/12/27 07:28:47;;;;;;;6.70;4.93;;;;;;;;;;5056957;28;20227;-78
2021/12/27 07:31:14;;;;;;;4.80;3.88;;;;;;;;;;5051143;28;20202;-78
2021/12/27 07:33:41;;;;;;;4.60;3.30;;;;;;;;;;5052256;28;20199;-79
2021/12/27 07:36:10;;;;;;;7.30;5.20;;;;;;;;;;5052302;28;20195;-79
2021/12/27 07:38:37;;;;;;;5.25;4.43;;;;;;;;;;5052188;28;20199;-79
2021/12/27 07:41:04;;;;;;;7.47;4.93;;;;;;;;;;5044019;28;20218;-80
2021/12/27 07:43:32;;;;;;;5.65;4.20;;;;;;;;;;5053018;28;20539;-79
2021/12/27 07:46:00;;;;;;;7.65;4.70;;;;;;;;;;5052348;28;20199;-79
2021/12/27 07:48:27;;;;;;;4.60;3.78;;;;;;;;;;5054823;28;20278;-79
2021/12/27 07:50:54;;;;;;;4.53;3.65;;;;;;;;;;5047351;28;20207;-79
2021/12/27 07:53:21;;;;;;;5.82;3.95;;;;;;;;;;5051924;28;20203;-79
2021/12/27 07:55:48;;;;;;;5.47;3.92;;;;;;;;;;5049617;28;20202;-79
2021/12/27 07:58:15;;;;;;;9.70;4.20;;;;;;;;;;5051306;28;20205;-79
2021/12/27 08:00:42;;;;;;;4.95;4.13;;;;;;;;;;5050836;28;20215;-79
2021/12/27 08:03:11;;;;;;;4.95;4.38;;;;;;;;;;5040327;28;20211;-79
2021/12/27 08:05:38;;;;;;;7.32;4.45;;;;;;;;;;5051556;28;20211;-79
2021/12/27 08:08:05;;;;;;;5.47;4.38;;;;;;;;;;5050837;28;20221;-78
2021/12/27 08:10:32;;;;;;;5.75;4.30;;;;;;;;;;5051863;28;20198;-78
2021/12/27 08:13:01;;;;;;;5.75;4.70;;;;;;;;;;5044711;28;20195;-78
2021/12/27 08:15:28;;;;;;;5.53;4.10;;;;;;;;;;5048134;28;20215;-78
2021/12/27 08:17:55;;;;;;;6.07;4.68;;;;;;;;;;5049708;28;20221;-78
2021/12/27 08:20:23;;;;;;;5.10;4.13;;;;;;;;;;5051760;28;20202;-79
2021/12/27 08:22:50;;;;;;;4.47;3.40;;;;;;;;;;5050629;28;20215;-78
2021/12/27 08:25:18;;;;;;;5.85;4.22;;;;;;;;;;5051215;28;20381;-78
2021/12/27 08:27:46;;;;;;;4.47;3.58;;;;;;;;;;5050816;28;20202;-79
2021/12/27 08:30:14;;;;;;;4.50;3.15;;;;;;;;;;5048133;28;20203;-79
2021/12/27 08:32:42;;;;;;;5.40;4.63;;;;;;;;;;5045955;28;20670;-79
2021/12/27 08:35:10;;;;;;;4.80;4.03;;;;;;;;;;5049947;28;20203;-79
2021/12/27 08:37:39;;;;;;;5.00;3.63;;;;;;;;;;5051153;28;20639;-78
2021/12/27 08:40:07;;;;;;;5.28;4.00;;;;;;;;;;5051838;28;20194;-79
2021/12/27 08:42:34;;;;;;;6.25;4.47;;;;;;;;;;5050193;28;20222;-80
2021/12/27 08:45:03;;;;;;;5.40;3.58;;;;;;;;;;5048871;28;20206;-79
2021/12/27 08:47:30;;;;;;;4.50;3.53;;;;;;;;;;5048067;28;20290;-79
2021/12/27 08:49:59;;;;;;;4.93;3.72;;;;;;;;;;5059738;28;20202;-79
2021/12/27 08:52:26;;;;;;;3.80;3.40;;;;;;;;;;5049121;28;20252;-79
2021/12/27 08:54:55;;;;;;;6.32;3.85;;;;;;;;;;5049495;28;20626;-80
2021/12/27 08:57:22;;;;;;;4.95;4.05;;;;;;;;;;5047971;28;20673;-81
2021/12/27 08:59:49;;;;;;;6.88;4.47;;;;;;;;;;5044986;28;20218;-81
2021/12/27 09:02:17;;;;;;;3.92;3.20;;;;;;;;;;5049615;28;20219;-79
2021/12/27 09:04:44;;;;;;;5.57;4.68;;;;;;;;;;5049990;28;20635;-79
2021/12/27 09:07:12;;;;;;;5.47;3.65;;;;;;;;;;5048408;28;20284;-79
2021/12/27 09:09:39;;;;;;;4.30;3.53;;;;;;;;;;5043259;28;20191;-79
2021/12/27 09:12:09;;;;;;;5.50;3.80;;;;;;;;;;5047743;28;20758;-79
2021/12/27 09:14:36;;;;;;;4.78;3.63;;;;;;;;;;5048808;28;20202;-80
2021/12/27 09:17:03;;;;;;;5.15;4.13;;;;;;;;;;5044313;28;20199;-78
2021/12/27 09:19:30;;;;;;;6.15;3.63;;;;;;;;;;5037698;28;20198;-78
2021/12/27 09:21:57;;;;;;;6.38;4.57;;;;;;;;;;5049249;28;20222;-78
2021/12/27 09:24:24;;;;;;;5.57;4.25;;;;;;;;;;5049699;28;20199;-78
2021/12/27 09:26:51;;;;;;;6.22;4.65;;;;;;;;;;5048865;28;20202;-78
2021/12/27 09:29:20;;;;;;;6.10;4.13;;;;;;;;;;5049266;28;20199;-78
2021/12/27 09:31:47;;;;;;;4.93;4.15;;;;;;;;;;5047086;28;20217;-77
2021/12/27 09:34:15;;;;;;;6.60;5.00;;;;;;;;;;5036360;28;20195;-80
2021/12/27 09:36:43;;;;;;;4.03;3.63;;;;;;;;;;5040571;28;20194;-77
2021/12/27 09:39:10;;;;;;;4.07;3.28;;;;;;;;;;5049021;28;20199;-77
2021/12/27 09:41:37;;;;;;;3.60;2.70;;;;;;;;;;5037051;28;20214;-77
2021/12/27 09:44:04;;;;;;;7.15;3.95;;;;;;;;;;5045399;28;20207;-77
2021/12/27 09:46:33;;;;;;;5.00;3.80;;;;;;;;;;5042316;28;20261;-77
2021/12/27 09:49:01;;;;;;;3.28;2.60;;;;;;;;;;5045081;28;20195;-77
2021/12/27 09:51:30;;;;;;;6.72;3.17;;;;;;;;;;5051357;28;20194;-77
2021/12/27 09:53:57;;;;;;;4.35;3.85;;;;;;;;;;5048891;28;20318;-77
2021/12/27 09:56:25;;;;;;;4.57;4.18;;;;;;;;;;5047995;28;20210;-78
2021/12/27 09:58:53;;;;;;;3.75;3.40;;;;;;;;;;5048967;28;20203;-77
2021/12/27 10:01:20;;;;;;;4.43;3.35;;;;;;;;;;5049959;28;20195;-78
2021/12/27 10:03:49;;;;;;;4.30;3.13;;;;;;;;;;5041447;28;20215;-77
2021/12/27 10:06:17;;;;;;;4.40;2.80;;;;;;;;;;5041876;28;20689;-77
2021/12/27 10:08:45;;;;;;;3.90;3.50;;;;;;;;;;5045307;28;20195;-77
2021/12/27 10:11:19;;;;;;;4.95;3.90;;;;;;;;;;5045998;28;20253;-77
2021/12/27 10:14:00;;;;;;;3.33;3.03;;;;;;;;;;5049498;28;20195;-78
2021/12/27 10:16:27;;;;;;;4.38;3.63;;;;;;;;;;5049230;28;20194;-77
2021/12/27 10:18:57;;;;;;;3.22;2.92;;;;;;;;;;5034958;28;20199;-78
2021/12/27 10:21:24;;;;;;;4.78;4.28;;;;;;;;;;5046513;28;20686;-77
2021/12/27 10:24:01;;;;;;;5.07;3.13;;;;;;;;;;5051987;28;20577;-77
2021/12/27 10:26:28;;;;;;;4.13;3.28;;;;;;;;;;5051269;28;20195;-77
2021/12/27 10:29:07;;;;;;;3.55;3.00;;;;;;;;;;5053760;28;20199;-77
2021/12/27 10:31:50;;;;;;;3.45;3.05;;;;;;;;;;5052755;28;20205;-78
2021/12/27 10:34:18;;;;;;;4.05;3.08;;;;;;;;;;5043226;28;20292;-77
2021/12/27 10:36:57;;;;;;;4.60;2.80;;;;;;;;;;5050917;28;20202;-77
2021/12/27 10:39:25;;;;;;;3.05;2.10;;;;;;;;;;5052206;28;20673;-77
2021/12/27 10:41:52;;;;;;;4.70;3.42;;;;;;;;;;5048612;28;20659;-77
2021/12/27 10:44:20;;;;;;;4.20;2.85;;;;;;;;;;5048425;28;20207;-77
2021/12/27 10:46:47;;;;;;;3.40;2.45;;;;;;;;;;5048053;28;20602;-77
2021/12/27 10:49:14;;;;;;;4.20;3.47;;;;;;;;;;5050507;28;20677;-77
2021/12/27 10:51:48;;;;;;;3.20;2.85;;;;;;;;;;5058236;28;20234;-80
2021/12/27 10:54:15;;;;;;;4.28;3.40;;;;;;;;;;5052508;28;20198;-77
2021/12/27 10:56:50;;;;;;;3.92;3.08;;;;;;;;;;5047054;28;20195;-78
2021/12/27 10:59:18;;;;;;;3.75;3.17;;;;;;;;;;5052321;28;20238;-77
2021/12/27 11:01:48;;;;;;;3.58;2.90;;;;;;;;;;5049770;28;20183;-78
2021/12/27 11:04:17;;;;;;;4.68;3.17;;;;;;;;;;5052596;28;20207;-79
2021/12/27 11:06:46;;;;;;;3.38;3.08;;;;;;;;;;5046097;28;20814;-76
2021/12/27 11:09:14;;;;;;;3.20;2.53;;;;;;;;;;5058508;28;20203;-75
2021/12/27 11:11:41;;;;;;;4.50;2.88;;;;;;;;;;5050454;28;20245;-76
2021/12/27 11:14:09;;;;;;;4.07;3.45;;;;;;;;;;5048224;28;20203;-76
2021/12/27 11:16:36;;;;;;;3.92;2.65;;;;;;;;;;5048027;28;20199;-76
2021/12/27 11:19:03;;;;;;;2.95;2.55;;;;;;;;;;5046466;28;20199;-76
2021/12/27 11:21:31;;;;;;;3.33;2.88;;;;;;;;;;5045757;28;20195;-76
2021/12/27 11:24:01;;;;;;;3.55;3.25;;;;;;;;;;5051183;28;20694;-76
2021/12/27 11:26:29;;;;;;;4.38;2.60;;;;;;;;;;5049391;28;20198;-76
2021/12/27 11:29:09;;;;;;;3.15;2.85;;;;;;;;;;5051461;28;20199;-76
2021/12/27 11:31:37;;;;;;;3.05;2.72;;;;;;;;;;5049353;28;20198;-76
2021/12/27 11:34:05;;;;;;;3.03;2.72;;;;;;;;;;5045655;28;20206;-78
2021/12/27 11:36:33;;;;;;;2.90;2.70;;;;;;;;;;5043092;28;20206;-76
2021/12/27 11:39:17;;;;;;;2.80;2.35;;;;;;;;;;5046183;28;20250;-76
2021/12/27 11:41:45;;;;;;;3.22;2.92;;;;;;;;;;5045866;28;20578;-75
2021/12/27 11:44:17;;;;;;;2.88;2.58;;;;;;;;;;5049416;28;20219;-75
2021/12/27 11:46:58;;;;;;;3.50;3.15;;;;;;;;;;5040231;28;20238;-75
2021/12/27 11:49:33;;;;;;;3.35;2.85;;;;;;;;;;5048560;28;20199;-76
2021/12/27 11:52:13;;;;;;;5.10;2.95;;;;;;;;;;5045590;28;20209;-76
2021/12/27 11:54:49;;;;;;;3.45;2.90;;;;;;;;;;5043218;28;20806;-75
2021/12/27 11:57:31;;;;;;;5.57;2.67;;;;;;;;;;5048339;28;20233;-76
2021/12/27 11:59:58;;;;;;;3.90;3.50;;;;;;;;;;5046781;28;21903;-76
2021/12/27 12:02:26;;;;;;;3.38;3.00;;;;;;;;;;5041848;28;20228;-75
2021/12/27 12:04:55;;;;;;;3.05;2.70;;;;;;;;;;5058698;28;20198;-76
2021/12/27 12:07:41;;;;;;;2.90;2.55;;;;;;;;;;5065272;28;20233;-75
2021/12/27 12:10:14;;;;;;;4.80;2.90;;;;;;;;;;5048157;28;20570;-76
2021/12/27 12:12:42;;;;;;;3.13;2.83;;;;;;;;;;5044460;28;20205;-76
2021/12/27 12:15:10;;;;;;;4.35;2.72;;;;;;;;;;5051265;28;20224;-76
2021/12/27 12:17:37;;;;;;;4.90;3.80;;;;;;;;;;5058827;28;20534;-77
2021/12/27 12:20:05;;;;;;;4.03;3.55;;;;;;;;;;5038664;28;20215;-76
2021/12/27 12:22:34;;;;;;;4.32;2.85;;;;;;;;;;5042811;28;20269;-76
2021/12/27 12:25:18;;;;;;;3.55;3.25;;;;;;;;;;5045849;28;20590;-76
2021/12/27 12:27:53;;;;;;;2.70;2.50;;;;;;;;;;5043702;28;20209;-76
2021/12/27 12:30:20;;;;;;;2.80;2.60;;;;;;;;;;5044428;28;20210;-76
2021/12/27 12:33:01;;;;;;;3.30;3.00;;;;;;;;;;5042476;28;20195;-76
2021/12/27 12:35:35;;;;;;;4.10;3.20;;;;;;;;;;5047914;28;20198;-75
2021/12/27 12:38:09;;;;;;;3.20;2.72;;;;;;;;;;5047644;28;20199;-76
2021/12/27 12:40:39;;;;;;;4.88;2.38;;;;;;;;;;5047408;28;20203;-76
2021/12/27 12:43:06;;;;;;;3.63;2.60;;;;;;;;;;5046633;28;20229;-76
2021/12/27 12:45:34;;;;;;;2.95;2.65;;;;;;;;;;5046158;28;20205;-76
2021/12/27 12:48:01;;;;;;;4.30;3.15;;;;;;;;;;5040868;28;20199;-77
2021/12/27 12:50:28;;;;;;;4.40;2.40;;;;;;;;;;5045756;28;20594;-76
2021/12/27 12:52:56;;;;;;;2.60;2.38;;;;;;;;;;5033065;28;20195;-77
2021/12/27 12:55:23;;;;;;;3.53;3.20;;;;;;;;;;5041075;28;20211;-77
2021/12/27 12:57:52;;;;;;;3.05;2.30;;;;;;;;;;5047125;28;20838;-77
2021/12/27 13:00:22;;;;;;;3.45;2.75;;;;;;;;;;5046379;28;20531;-76
2021/12/27 13:02:49;;;;;;;2.40;2.15;;;;;;;;;;5045153;28;20258;-77
2021/12/27 13:05:18;;;;;;;3.40;2.58;;;;;;;;;;5035384;28;20233;-77
2021/12/27 13:07:46;;;;;;;2.55;2.35;;;;;;;;;;5048391;28;20231;-77
2021/12/27 13:10:19;;;;;;;4.03;2.22;;;;;;;;;;5047793;28;20659;-77
2021/12/27 13:12:46;;;;;;;4.38;2.45;;;;;;;;;;5048360;28;20659;-76
2021/12/27 13:15:17;;;;;;;2.35;2.15;;;;;;;;;;5046362;28;20194;-77
2021/12/27 13:17:44;;;;;;;2.65;2.40;;;;;;;;;;5040295;28;20624;-77
2021/12/27 13:20:12;;;;;;;2.53;1.73;;;;;;;;;;5048410;28;20548;-77
2021/12/27 13:22:44;;;;;;;2.60;2.20;;;;;;;;;;5046939;28;20199;-77
2021/12/27 13:25:12;;;;;;;4.82;2.30;;;;;;;;;;5046834;28;20206;-76
2021/12/27 13:27:39;;;;;;;3.13;1.95;;;;;;;;;;5049170;28;20203;-76
2021/12/27 13:30:08;;;;;;;2.15;1.95;;;;;;;;;;5047752;28;20195;-77
2021/12/27 13:32:36;;;;;;;2.53;2.08;;;;;;;;;;5042870;28;20284;-76
2021/12/27 13:35:04;;;;;;;1.95;1.75;;;;;;;;;;5043006;28;20210;-76
2021/12/27 13:37:35;;;;;;;3.25;2.25;;;;;;;;;;5042968;28;20232;-76
2021/12/27 13:40:06;;;;;;;2.08;1.92;;;;;;;;;;5043494;28;20199;-76
2021/12/27 13:42:33;;;;;;;1.35;1.25;;;;;;;;;;5045603;28;20202;-76
2021/12/27 13:45:14;;;;;;;2.10;1.90;;;;;;;;;;5047285;28;20691;-77
2021/12/27 13:47:51;;;;;;;1.80;1.60;;;;;;;;;;5045428;28;20582;-76
2021/12/27 13:50:25;;;;;;;2.45;1.95;;;;;;;;;;5045681;28;20585;-78
2021/12/27 13:52:53;;;;;;;2.40;1.52;;;;;;;;;;5042665;28;20194;-76
2021/12/27 13:55:24;;;;;;;2.28;2.05;;;;;;;;;;5049012;28;20666;-78
2021/12/27 13:57:51;;;;;;;1.80;1.45;;;;;;;;;;5046872;28;20524;-77
2021/12/27 14:00:18;;;;;;;1.70;1.60;;;;;;;;;;5049544;28;20222;-77
2021/12/27 14:02:47;;;;;;;2.08;1.60;;;;;;;;;;5053542;28;20191;-77
2021/12/27 14:05:16;;;;;;;1.90;1.70;;;;;;;;;;5049688;28;20643;-77
2021/12/27 14:07:43;;;;;;;1.85;1.48;;;;;;;;;;5037015;28;20195;-77
2021/12/27 14:10:18;;;;;;;1.88;1.65;;;;;;;;;;5044566;28;20198;-77
2021/12/27 14:12:58;;;;;;;1.95;1.75;;;;;;;;;;5045996;28;20736;-78
2021/12/27 14:15:28;;;;;;;2.80;2.45;;;;;;;;;;5051144;28;20245;-78
2021/12/27 14:17:55;;;;;;;2.70;2.17;;;;;;;;;;5046023;28;20202;-77
2021/12/27 14:20:23;;;;;;;2.40;1.77;;;;;;;;;;5048887;28;20195;-78
2021/12/27 14:22:52;;;;;;;2.90;1.85;;;;;;;;;;5049104;28;20203;-77
2021/12/27 14:25:21;;;;;;;2.30;2.10;;;;;;;;;;5049871;28;20298;-77
2021/12/27 14:27:49;;;;;;;2.85;2.00;;;;;;;;;;5057900;28;20197;-78
2021/12/27 14:30:18;;;;;;;1.83;1.63;;;;;;;;;;5053459;28;20685;-77
2021/12/27 14:32:47;;;;;;;1.77;1.65;;;;;;;;;;5039956;28;20202;-78
2021/12/27 14:35:25;;;;;;;1.85;1.38;;;;;;;;;;5049242;28;20199;-78
2021/12/27 14:37:52;;;;;;;1.80;1.30;;;;;;;;;;5044269;28;20511;-77
2021/12/27 14:40:21;;;;;;;1.40;1.30;;;;;;;;;;5050876;28;20202;-77
2021/12/27 14:42:49;;;;;;;2.78;2.03;;;;;;;;;;5047607;28;20195;-77
2021/12/27 14:45:16;;;;;;;1.48;1.38;;;;;;;;;;5047701;28;20215;-77
2021/12/27 14:47:43;;;;;;;2.55;2.13;;;;;;;;;;5051784;28;20209;-77